sensor_id;sensor_type;location;lat;lon;timestamp;temperature;humidity
52943;DHT22;38809;53.300;6.614;2023-05-07T00:00:37;11.00;99.90
52943;DHT22;38809;53.300;6.614;2023-05-07T00:03:03;11.10;99.90
52943;DHT22;38809;53.300;6.614;2023-05-07T00:05:28;11.00;99.90
52943;DHT22;38809;53.300;6.614;2023-05-07T00:07:54;11.10;99.90
52943;DHT22;38809;53.300;6.614;2023-05-07T00:10:20;10.90;99.90
52943;DHT22;38809;53.300;6.614;2023-05-07T00:12:46;10.90;99.90
52943;DHT22;38809;53.300;6.614;2023-05-07T00:15:11;11.00;99.90
52943;DHT22;38809;53.300;6.614;2023-05-07T00:17:37;11.00;99.90
52943;DHT22;38809;53.300;6.614;2023-05-07T00:20:04;11.00;99.90
52943;DHT22;38809;53.300;6.614;2023-05-07T00:22:31;11.00;99.90
52943;DHT22;38809;53.300;6.614;2023-05-07T00:24:58;10.90;99.90
52943;DHT22;38809;53.300;6.614;2023-05-07T00:27:24;10.90;99.90
52943;DHT22;38809;53.300;6.614;2023-05-07T00:29:50;10.70;99.90
52943;DHT22;38809;53.300;6.614;2023-05-07T00:32:16;10.80;99.90
52943;DHT22;38809;53.300;6.614;2023-05-07T00:34:43;10.90;99.90
52943;DHT22;38809;53.300;6.614;2023-05-07T00:37:08;10.90;99.90
52943;DHT22;38809;53.300;6.614;2023-05-07T00:39:34;10.80;99.90
52943;DHT22;38809;53.300;6.614;2023-05-07T00:42:00;10.80;99.90
52943;DHT22;38809;53.300;6.614;2023-05-07T00:44:26;10.80;99.90
52943;DHT22;38809;53.300;6.614;2023-05-07T00:46:53;11.00;99.90
52943;DHT22;38809;53.300;6.614;2023-05-07T00:49:19;10.90;99.90
52943;DHT22;38809;53.300;6.614;2023-05-07T00:51:46;10.90;99.90
52943;DHT22;38809;53.300;6.614;2023-05-07T00:54:13;10.90;99.90
52943;DHT22;38809;53.300;6.614;2023-05-07T00:56:39;11.00;99.90
52943;DHT22;38809;53.300;6.614;2023-05-07T00:59:06;11.00;99.90
52943;DHT22;38809;53.300;6.614;2023-05-07T01:01:31;10.90;99.90
52943;DHT22;38809;53.300;6.614;2023-05-07T01:03:57;10.90;99.90
52943;DHT22;38809;53.300;6.614;2023-05-07T01:06:24;10.90;99.90
52943;DHT22;38809;53.300;6.614;2023-05-07T01:08:51;10.90;99.90
52943;DHT22;38809;53.300;6.614;2023-05-07T01:11:18;11.10;99.90
52943;DHT22;38809;53.300;6.614;2023-05-07T01:13:46;11.00;99.90
52943;DHT22;38809;53.300;6.614;2023-05-07T01:16:13;11.10;99.90
52943;DHT22;38809;53.300;6.614;2023-05-07T01:18:38;11.00;99.90
52943;DHT22;38809;53.300;6.614;2023-05-07T01:21:05;10.80;99.90
52943;DHT22;38809;53.300;6.614;2023-05-07T01:23:31;10.90;99.90
52943;DHT22;38809;53.300;6.614;2023-05-07T01:25:58;10.80;99.90
52943;DHT22;38809;53.300;6.614;2023-05-07T01:28:23;10.90;99.90
52943;DHT22;38809;53.300;6.614;2023-05-07T01:30:56;10.90;99.90
52943;DHT22;38809;53.300;6.614;2023-05-07T01:33:25;10.80;99.90
52943;DHT22;38809;53.300;6.614;2023-05-07T01:35:53;11.00;99.90
52943;DHT22;38809;53.300;6.614;2023-05-07T01:38:20;10.90;99.90
52943;DHT22;38809;53.300;6.614;2023-05-07T01:40:47;10.90;99.90
52943;DHT22;38809;53.300;6.614;2023-05-07T01:43:12;11.00;99.90
52943;DHT22;38809;53.300;6.614;2023-05-07T01:45:39;11.00;99.90
52943;DHT22;38809;53.300;6.614;2023-05-07T01:48:06;10.90;99.90
52943;DHT22;38809;53.300;6.614;2023-05-07T01:50:32;11.00;99.90
52943;DHT22;38809;53.300;6.614;2023-05-07T01:52:59;11.00;99.90
52943;DHT22;38809;53.300;6.614;2023-05-07T01:55:25;11.00;99.90
52943;DHT22;38809;53.300;6.614;2023-05-07T01:57:50;10.90;99.90
52943;DHT22;38809;53.300;6.614;2023-05-07T02:00:16;10.90;99.90
52943;DHT22;38809;53.300;6.614;2023-05-07T02:02:42;11.00;99.90
52943;DHT22;38809;53.300;6.614;2023-05-07T02:05:08;10.90;99.90
52943;DHT22;38809;53.300;6.614;2023-05-07T02:07:34;11.10;99.90
52943;DHT22;38809;53.300;6.614;2023-05-07T02:10:00;11.00;99.90
52943;DHT22;38809;53.300;6.614;2023-05-07T02:12:25;10.90;99.90
52943;DHT22;38809;53.300;6.614;2023-05-07T02:14:51;10.80;99.90
52943;DHT22;38809;53.300;6.614;2023-05-07T02:17:17;10.90;99.90
52943;DHT22;38809;53.300;6.614;2023-05-07T02:19:42;10.90;99.90
52943;DHT22;38809;53.300;6.614;2023-05-07T02:22:09;10.90;99.90
52943;DHT22;38809;53.300;6.614;2023-05-07T02:24:35;10.80;99.90
52943;DHT22;38809;53.300;6.614;2023-05-07T02:27:01;11.00;99.90
52943;DHT22;38809;53.300;6.614;2023-05-07T02:29:28;10.80;99.90
52943;DHT22;38809;53.300;6.614;2023-05-07T02:31:54;10.90;99.90
52943;DHT22;38809;53.300;6.614;2023-05-07T02:34:20;10.90;99.90
52943;DHT22;38809;53.300;6.614;2023-05-07T02:36:46;11.00;99.90
52943;DHT22;38809;53.300;6.614;2023-05-07T02:39:13;10.80;99.90
52943;DHT22;38809;53.300;6.614;2023-05-07T02:41:38;10.90;99.90
52943;DHT22;38809;53.300;6.614;2023-05-07T02:44:04;10.90;99.90
52943;DHT22;38809;53.300;6.614;2023-05-07T02:46:30;10.70;99.90
52943;DHT22;38809;53.300;6.614;2023-05-07T02:48:56;10.90;99.90
52943;DHT22;38809;53.300;6.614;2023-05-07T02:51:22;10.70;99.90
52943;DHT22;38809;53.300;6.614;2023-05-07T02:53:48;10.80;99.90
52943;DHT22;38809;53.300;6.614;2023-05-07T02:56:14;10.80;99.90
52943;DHT22;38809;53.300;6.614;2023-05-07T02:58:39;10.70;99.90
52943;DHT22;38809;53.300;6.614;2023-05-07T03:01:06;10.50;99.90
52943;DHT22;38809;53.300;6.614;2023-05-07T03:03:32;10.70;99.90
52943;DHT22;38809;53.300;6.614;2023-05-07T03:05:57;10.50;99.90
52943;DHT22;38809;53.300;6.614;2023-05-07T03:08:24;10.60;99.90
52943;DHT22;38809;53.300;6.614;2023-05-07T03:10:49;10.70;99.90
52943;DHT22;38809;53.300;6.614;2023-05-07T03:13:15;10.60;99.90
52943;DHT22;38809;53.300;6.614;2023-05-07T03:15:41;10.70;99.90
52943;DHT22;38809;53.300;6.614;2023-05-07T03:18:06;10.60;99.90
52943;DHT22;38809;53.300;6.614;2023-05-07T03:20:32;10.50;99.90
52943;DHT22;38809;53.300;6.614;2023-05-07T03:22:58;10.40;99.90
52943;DHT22;38809;53.300;6.614;2023-05-07T03:25:24;10.60;99.90
52943;DHT22;38809;53.300;6.614;2023-05-07T03:27:49;10.50;99.90
52943;DHT22;38809;53.300;6.614;2023-05-07T03:30:15;10.40;99.90
52943;DHT22;38809;53.300;6.614;2023-05-07T03:32:41;10.60;99.90
52943;DHT22;38809;53.300;6.614;2023-05-07T03:35:07;10.60;99.90
52943;DHT22;38809;53.300;6.614;2023-05-07T03:37:33;10.40;99.90
52943;DHT22;38809;53.300;6.614;2023-05-07T03:39:58;10.60;99.90
52943;DHT22;38809;53.300;6.614;2023-05-07T03:42:24;10.60;99.90
52943;DHT22;38809;53.300;6.614;2023-05-07T03:44:50;10.50;99.90
52943;DHT22;38809;53.300;6.614;2023-05-07T03:47:15;10.40;99.90
52943;DHT22;38809;53.300;6.614;2023-05-07T03:49:41;10.40;99.90
52943;DHT22;38809;53.300;6.614;2023-05-07T03:52:07;10.40;99.90
52943;DHT22;38809;53.300;6.614;2023-05-07T03:54:32;10.50;99.90
52943;DHT22;38809;53.300;6.614;2023-05-07T03:56:58;10.40;99.90
52943;DHT22;38809;53.300;6.614;2023-05-07T03:59:24;10.50;99.90
52943;DHT22;38809;53.300;6.614;2023-05-07T04:01:49;11.50;99.90
52943;DHT22;38809;53.300;6.614;2023-05-07T04:04:15;10.40;99.90
52943;DHT22;38809;53.300;6.614;2023-05-07T04:06:41;10.40;99.90
52943;DHT22;38809;53.300;6.614;2023-05-07T04:09:07;10.20;99.90
52943;DHT22;38809;53.300;6.614;2023-05-07T04:11:33;10.20;99.90
52943;DHT22;38809;53.300;6.614;2023-05-07T04:13:59;10.30;99.90
52943;DHT22;38809;53.300;6.614;2023-05-07T04:16:24;10.10;99.90
52943;DHT22;38809;53.300;6.614;2023-05-07T04:18:50;10.20;99.90
52943;DHT22;38809;53.300;6.614;2023-05-07T04:21:20;10.10;99.90
52943;DHT22;38809;53.300;6.614;2023-05-07T04:23:47;10.10;99.90
52943;DHT22;38809;53.300;6.614;2023-05-07T04:26:13;10.20;99.90
52943;DHT22;38809;53.300;6.614;2023-05-07T04:28:39;10.10;99.90
52943;DHT22;38809;53.300;6.614;2023-05-07T04:31:06;10.20;99.90
52943;DHT22;38809;53.300;6.614;2023-05-07T04:33:32;10.10;99.90
52943;DHT22;38809;53.300;6.614;2023-05-07T04:35:58;10.30;99.90
52943;DHT22;38809;53.300;6.614;2023-05-07T04:38:28;10.30;99.90
52943;DHT22;38809;53.300;6.614;2023-05-07T04:40:55;10.10;99.90
52943;DHT22;38809;53.300;6.614;2023-05-07T04:43:21;10.10;99.90
52943;DHT22;38809;53.300;6.614;2023-05-07T04:45:47;10.00;99.90
52943;DHT22;38809;53.300;6.614;2023-05-07T04:48:14;10.20;99.90
52943;DHT22;38809;53.300;6.614;2023-05-07T04:50:41;10.00;99.90
52943;DHT22;38809;53.300;6.614;2023-05-07T04:53:07;10.30;99.90
52943;DHT22;38809;53.300;6.614;2023-05-07T04:55:32;10.10;99.90
52943;DHT22;38809;53.300;6.614;2023-05-07T04:57:58;10.20;99.90
52943;DHT22;38809;53.300;6.614;2023-05-07T05:00:26;10.30;99.90
52943;DHT22;38809;53.300;6.614;2023-05-07T05:02:51;10.30;99.90
52943;DHT22;38809;53.300;6.614;2023-05-07T05:05:17;10.30;99.90
52943;DHT22;38809;53.300;6.614;2023-05-07T05:07:43;10.10;99.90
52943;DHT22;38809;53.300;6.614;2023-05-07T05:10:08;10.30;99.90
52943;DHT22;38809;53.300;6.614;2023-05-07T05:12:34;10.10;99.90
52943;DHT22;38809;53.300;6.614;2023-05-07T05:15:00;10.10;99.90
52943;DHT22;38809;53.300;6.614;2023-05-07T05:17:26;10.10;99.90
52943;DHT22;38809;53.300;6.614;2023-05-07T05:19:51;10.20;99.90
52943;DHT22;38809;53.300;6.614;2023-05-07T05:22:17;10.20;99.90
52943;DHT22;38809;53.300;6.614;2023-05-07T05:24:42;10.20;99.90
52943;DHT22;38809;53.300;6.614;2023-05-07T05:27:08;10.20;99.90
52943;DHT22;38809;53.300;6.614;2023-05-07T05:29:34;10.00;99.90
52943;DHT22;38809;53.300;6.614;2023-05-07T05:32:00;10.10;99.90
52943;DHT22;38809;53.300;6.614;2023-05-07T05:34:25;10.10;99.90
52943;DHT22;38809;53.300;6.614;2023-05-07T05:36:51;10.10;99.90
52943;DHT22;38809;53.300;6.614;2023-05-07T05:39:17;10.20;99.90
52943;DHT22;38809;53.300;6.614;2023-05-07T05:41:42;10.00;99.90
52943;DHT22;38809;53.300;6.614;2023-05-07T05:44:08;10.00;99.90
52943;DHT22;38809;53.300;6.614;2023-05-07T05:46:34;10.00;99.90
52943;DHT22;38809;53.300;6.614;2023-05-07T05:49:00;10.20;99.90
52943;DHT22;38809;53.300;6.614;2023-05-07T05:51:26;9.90;99.90
52943;DHT22;38809;53.300;6.614;2023-05-07T05:53:52;10.00;99.90
52943;DHT22;38809;53.300;6.614;2023-05-07T05:56:17;10.00;99.90
52943;DHT22;38809;53.300;6.614;2023-05-07T05:58:43;10.00;99.90
52943;DHT22;38809;53.300;6.614;2023-05-07T06:01:09;10.00;99.90
52943;DHT22;38809;53.300;6.614;2023-05-07T06:03:35;10.00;99.90
52943;DHT22;38809;53.300;6.614;2023-05-07T06:06:01;10.10;99.90
52943;DHT22;38809;53.300;6.614;2023-05-07T06:08:29;10.00;99.90
52943;DHT22;38809;53.300;6.614;2023-05-07T06:10:56;10.00;99.90
52943;DHT22;38809;53.300;6.614;2023-05-07T06:13:22;10.10;99.90
52943;DHT22;38809;53.300;6.614;2023-05-07T06:15:49;10.00;99.90
52943;DHT22;38809;53.300;6.614;2023-05-07T06:18:15;10.10;99.90
52943;DHT22;38809;53.300;6.614;2023-05-07T06:20:40;10.10;99.90
52943;DHT22;38809;53.300;6.614;2023-05-07T06:23:06;10.10;99.90
52943;DHT22;38809;53.300;6.614;2023-05-07T06:25:35;10.10;99.90
52943;DHT22;38809;53.300;6.614;2023-05-07T06:28:00;10.10;99.90
52943;DHT22;38809;53.300;6.614;2023-05-07T06:30:26;10.10;99.90
52943;DHT22;38809;53.300;6.614;2023-05-07T06:32:52;10.20;99.90
52943;DHT22;38809;53.300;6.614;2023-05-07T06:35:18;10.30;99.90
52943;DHT22;38809;53.300;6.614;2023-05-07T06:37:44;10.10;99.90
52943;DHT22;38809;53.300;6.614;2023-05-07T06:40:10;10.30;99.90
52943;DHT22;38809;53.300;6.614;2023-05-07T06:42:36;10.40;99.90
52943;DHT22;38809;53.300;6.614;2023-05-07T06:45:03;10.40;99.90
52943;DHT22;38809;53.300;6.614;2023-05-07T06:47:29;10.30;99.90
52943;DHT22;38809;53.300;6.614;2023-05-07T06:49:55;10.30;99.90
52943;DHT22;38809;53.300;6.614;2023-05-07T06:52:20;10.40;99.90
52943;DHT22;38809;53.300;6.614;2023-05-07T06:54:46;10.30;99.90
52943;DHT22;38809;53.300;6.614;2023-05-07T06:57:12;10.40;99.90
52943;DHT22;38809;53.300;6.614;2023-05-07T06:59:37;10.50;99.90
52943;DHT22;38809;53.300;6.614;2023-05-07T07:02:03;10.30;99.90
52943;DHT22;38809;53.300;6.614;2023-05-07T07:04:29;10.30;99.90
52943;DHT22;38809;53.300;6.614;2023-05-07T07:06:56;10.30;99.90
52943;DHT22;38809;53.300;6.614;2023-05-07T07:09:22;10.30;99.90
52943;DHT22;38809;53.300;6.614;2023-05-07T07:11:48;10.50;99.90
52943;DHT22;38809;53.300;6.614;2023-05-07T07:14:13;10.50;99.90
52943;DHT22;38809;53.300;6.614;2023-05-07T07:16:39;10.50;99.90
52943;DHT22;38809;53.300;6.614;2023-05-07T07:19:06;10.40;99.90
52943;DHT22;38809;53.300;6.614;2023-05-07T07:21:31;10.50;99.90
52943;DHT22;38809;53.300;6.614;2023-05-07T07:23:57;10.50;99.90
52943;DHT22;38809;53.300;6.614;2023-05-07T07:26:23;10.30;99.90
52943;DHT22;38809;53.300;6.614;2023-05-07T07:28:49;10.40;99.90
52943;DHT22;38809;53.300;6.614;2023-05-07T07:31:14;10.50;99.90
52943;DHT22;38809;53.300;6.614;2023-05-07T07:33:40;10.40;99.90
52943;DHT22;38809;53.300;6.614;2023-05-07T07:36:06;10.40;99.90
52943;DHT22;38809;53.300;6.614;2023-05-07T07:38:33;10.40;99.90
52943;DHT22;38809;53.300;6.614;2023-05-07T07:40:59;10.50;99.90
52943;DHT22;38809;53.300;6.614;2023-05-07T07:43:25;10.60;99.90
52943;DHT22;38809;53.300;6.614;2023-05-07T07:45:51;10.40;99.90
52943;DHT22;38809;53.300;6.614;2023-05-07T07:48:16;10.50;99.90
52943;DHT22;38809;53.300;6.614;2023-05-07T07:50:42;10.50;99.90
52943;DHT22;38809;53.300;6.614;2023-05-07T07:53:08;10.40;99.90
52943;DHT22;38809;53.300;6.614;2023-05-07T07:55:41;10.40;99.90
52943;DHT22;38809;53.300;6.614;2023-05-07T07:58:07;10.50;99.90
52943;DHT22;38809;53.300;6.614;2023-05-07T08:00:32;10.60;99.90
52943;DHT22;38809;53.300;6.614;2023-05-07T08:02:58;10.70;99.90
52943;DHT22;38809;53.300;6.614;2023-05-07T08:05:24;10.70;99.90
52943;DHT22;38809;53.300;6.614;2023-05-07T08:07:50;10.60;99.90
52943;DHT22;38809;53.300;6.614;2023-05-07T08:10:18;10.60;99.90
52943;DHT22;38809;53.300;6.614;2023-05-07T08:12:50;10.70;99.90
52943;DHT22;38809;53.300;6.614;2023-05-07T08:15:16;10.60;99.90
52943;DHT22;38809;53.300;6.614;2023-05-07T08:17:43;10.70;99.90
52943;DHT22;38809;53.300;6.614;2023-05-07T08:20:09;10.70;99.90
52943;DHT22;38809;53.300;6.614;2023-05-07T08:22:36;10.90;99.90
52943;DHT22;38809;53.300;6.614;2023-05-07T08:25:02;10.90;99.90
52943;DHT22;38809;53.300;6.614;2023-05-07T08:27:28;10.80;99.90
52943;DHT22;38809;53.300;6.614;2023-05-07T08:29:54;10.80;99.90
52943;DHT22;38809;53.300;6.614;2023-05-07T08:32:20;10.80;99.90
52943;DHT22;38809;53.300;6.614;2023-05-07T08:34:46;10.90;99.90
52943;DHT22;38809;53.300;6.614;2023-05-07T08:37:12;10.90;99.90
52943;DHT22;38809;53.300;6.614;2023-05-07T08:39:38;11.00;99.90
52943;DHT22;38809;53.300;6.614;2023-05-07T08:42:04;11.00;99.90
52943;DHT22;38809;53.300;6.614;2023-05-07T08:44:34;11.00;99.90
52943;DHT22;38809;53.300;6.614;2023-05-07T08:47:01;11.10;99.90
52943;DHT22;38809;53.300;6.614;2023-05-07T08:49:28;11.10;99.90
52943;DHT22;38809;53.300;6.614;2023-05-07T08:51:54;11.20;99.90
52943;DHT22;38809;53.300;6.614;2023-05-07T08:54:21;11.30;99.90
52943;DHT22;38809;53.300;6.614;2023-05-07T08:56:47;11.20;99.90
52943;DHT22;38809;53.300;6.614;2023-05-07T08:59:13;11.40;99.90
52943;DHT22;38809;53.300;6.614;2023-05-07T09:01:39;11.60;99.90
52943;DHT22;38809;53.300;6.614;2023-05-07T09:04:05;11.60;99.90
52943;DHT22;38809;53.300;6.614;2023-05-07T09:06:32;11.70;99.90
52943;DHT22;38809;53.300;6.614;2023-05-07T09:08:58;11.90;99.90
52943;DHT22;38809;53.300;6.614;2023-05-07T09:11:26;11.80;99.90
52943;DHT22;38809;53.300;6.614;2023-05-07T09:13:56;11.70;99.90
52943;DHT22;38809;53.300;6.614;2023-05-07T09:16:24;11.80;99.90
52943;DHT22;38809;53.300;6.614;2023-05-07T09:18:54;11.90;99.90
52943;DHT22;38809;53.300;6.614;2023-05-07T09:21:21;11.90;99.90
52943;DHT22;38809;53.300;6.614;2023-05-07T09:23:52;12.00;99.90
52943;DHT22;38809;53.300;6.614;2023-05-07T09:26:20;12.00;99.90
52943;DHT22;38809;53.300;6.614;2023-05-07T09:28:46;11.90;99.90
52943;DHT22;38809;53.300;6.614;2023-05-07T09:31:12;11.90;99.90
52943;DHT22;38809;53.300;6.614;2023-05-07T09:33:39;12.10;99.90
52943;DHT22;38809;53.300;6.614;2023-05-07T09:36:07;12.20;99.90
52943;DHT22;38809;53.300;6.614;2023-05-07T09:38:33;12.20;99.90
52943;DHT22;38809;53.300;6.614;2023-05-07T09:41:12;12.40;99.90
52943;DHT22;38809;53.300;6.614;2023-05-07T09:43:39;12.30;99.90
52943;DHT22;38809;53.300;6.614;2023-05-07T09:46:14;12.40;99.90
52943;DHT22;38809;53.300;6.614;2023-05-07T09:48:42;12.60;99.90
52943;DHT22;38809;53.300;6.614;2023-05-07T09:53:43;12.70;99.90
52943;DHT22;38809;53.300;6.614;2023-05-07T09:56:09;12.80;99.90
52943;DHT22;38809;53.300;6.614;2023-05-07T09:58:37;12.90;99.90
52943;DHT22;38809;53.300;6.614;2023-05-07T10:01:03;12.90;99.90
52943;DHT22;38809;53.300;6.614;2023-05-07T10:03:31;13.00;99.90
52943;DHT22;38809;53.300;6.614;2023-05-07T10:05:58;13.00;99.90
52943;DHT22;38809;53.300;6.614;2023-05-07T10:08:24;13.10;99.90
52943;DHT22;38809;53.300;6.614;2023-05-07T10:10:50;13.00;99.90
52943;DHT22;38809;53.300;6.614;2023-05-07T10:13:18;12.90;99.90
52943;DHT22;38809;53.300;6.614;2023-05-07T10:15:44;13.00;99.90
52943;DHT22;38809;53.300;6.614;2023-05-07T10:18:12;13.10;99.90
52943;DHT22;38809;53.300;6.614;2023-05-07T10:20:38;13.10;99.90
52943;DHT22;38809;53.300;6.614;2023-05-07T10:23:05;13.00;99.90
52943;DHT22;38809;53.300;6.614;2023-05-07T10:25:32;12.90;99.90
52943;DHT22;38809;53.300;6.614;2023-05-07T10:28:03;13.20;99.90
52943;DHT22;38809;53.300;6.614;2023-05-07T10:33:22;13.40;99.90
52943;DHT22;38809;53.300;6.614;2023-05-07T10:35:49;13.70;99.90
52943;DHT22;38809;53.300;6.614;2023-05-07T10:38:15;13.70;99.90
52943;DHT22;38809;53.300;6.614;2023-05-07T10:40:40;13.60;99.90
52943;DHT22;38809;53.300;6.614;2023-05-07T10:43:06;13.90;99.90
52943;DHT22;38809;53.300;6.614;2023-05-07T10:45:33;14.00;99.90
52943;DHT22;38809;53.300;6.614;2023-05-07T10:50:43;13.80;99.90
52943;DHT22;38809;53.300;6.614;2023-05-07T10:55:51;14.00;99.90
52943;DHT22;38809;53.300;6.614;2023-05-07T10:58:27;14.00;99.90
52943;DHT22;38809;53.300;6.614;2023-05-07T11:00:58;14.10;99.90
52943;DHT22;38809;53.300;6.614;2023-05-07T11:03:25;13.90;99.90
52943;DHT22;38809;53.300;6.614;2023-05-07T11:06:15;13.90;99.90
52943;DHT22;38809;53.300;6.614;2023-05-07T11:08:55;13.80;99.90
52943;DHT22;38809;53.300;6.614;2023-05-07T11:11:47;14.10;99.90
52943;DHT22;38809;53.300;6.614;2023-05-07T11:14:14;14.00;99.90
52943;DHT22;38809;53.300;6.614;2023-05-07T11:16:41;14.10;99.90
52943;DHT22;38809;53.300;6.614;2023-05-07T11:19:08;14.30;99.90
52943;DHT22;38809;53.300;6.614;2023-05-07T11:21:41;14.50;99.90
52943;DHT22;38809;53.300;6.614;2023-05-07T11:24:09;14.40;99.90
52943;DHT22;38809;53.300;6.614;2023-05-07T11:26:43;14.80;99.90
52943;DHT22;38809;53.300;6.614;2023-05-07T11:29:17;14.80;99.90
52943;DHT22;38809;53.300;6.614;2023-05-07T11:31:44;14.80;99.90
52943;DHT22;38809;53.300;6.614;2023-05-07T11:34:14;14.90;99.90
52943;DHT22;38809;53.300;6.614;2023-05-07T11:36:42;14.80;99.90
52943;DHT22;38809;53.300;6.614;2023-05-07T11:39:31;14.90;99.90
52943;DHT22;38809;53.300;6.614;2023-05-07T11:41:59;14.90;99.90
52943;DHT22;38809;53.300;6.614;2023-05-07T11:44:25;15.20;99.90
52943;DHT22;38809;53.300;6.614;2023-05-07T11:47:04;15.00;99.90
52943;DHT22;38809;53.300;6.614;2023-05-07T11:49:30;14.90;99.90
52943;DHT22;38809;53.300;6.614;2023-05-07T11:51:56;14.90;99.90
52943;DHT22;38809;53.300;6.614;2023-05-07T11:54:22;14.70;99.90
52943;DHT22;38809;53.300;6.614;2023-05-07T11:56:47;14.70;99.90
52943;DHT22;38809;53.300;6.614;2023-05-07T11:59:17;14.80;99.90
52943;DHT22;38809;53.300;6.614;2023-05-07T12:01:46;14.80;99.90
52943;DHT22;38809;53.300;6.614;2023-05-07T12:04:12;14.80;99.90
52943;DHT22;38809;53.300;6.614;2023-05-07T12:06:39;15.10;99.90
52943;DHT22;38809;53.300;6.614;2023-05-07T12:09:05;15.00;99.90
52943;DHT22;38809;53.300;6.614;2023-05-07T12:11:32;14.90;99.90
52943;DHT22;38809;53.300;6.614;2023-05-07T12:13:59;15.10;99.90
52943;DHT22;38809;53.300;6.614;2023-05-07T12:16:25;15.30;99.90
52943;DHT22;38809;53.300;6.614;2023-05-07T12:18:51;15.50;99.90
52943;DHT22;38809;53.300;6.614;2023-05-07T12:21:18;15.60;99.90
52943;DHT22;38809;53.300;6.614;2023-05-07T12:23:44;15.90;99.90
52943;DHT22;38809;53.300;6.614;2023-05-07T12:26:10;15.70;99.90
52943;DHT22;38809;53.300;6.614;2023-05-07T12:28:37;15.90;99.90
52943;DHT22;38809;53.300;6.614;2023-05-07T12:31:07;15.70;99.90
52943;DHT22;38809;53.300;6.614;2023-05-07T12:33:34;15.50;99.90
52943;DHT22;38809;53.300;6.614;2023-05-07T12:36:04;15.30;99.90
52943;DHT22;38809;53.300;6.614;2023-05-07T12:38:35;15.30;99.90
52943;DHT22;38809;53.300;6.614;2023-05-07T12:41:01;15.40;99.90
52943;DHT22;38809;53.300;6.614;2023-05-07T12:43:28;15.50;99.90
52943;DHT22;38809;53.300;6.614;2023-05-07T12:45:55;15.40;99.90
52943;DHT22;38809;53.300;6.614;2023-05-07T12:48:21;15.70;99.90
52943;DHT22;38809;53.300;6.614;2023-05-07T12:50:51;15.60;99.90
52943;DHT22;38809;53.300;6.614;2023-05-07T12:53:21;15.90;99.90
52943;DHT22;38809;53.300;6.614;2023-05-07T12:55:49;15.70;99.90
52943;DHT22;38809;53.300;6.614;2023-05-07T13:00:51;15.70;99.90
52943;DHT22;38809;53.300;6.614;2023-05-07T13:03:33;15.80;99.90
52943;DHT22;38809;53.300;6.614;2023-05-07T13:08:29;15.80;99.90
52943;DHT22;38809;53.300;6.614;2023-05-07T13:10:57;15.90;99.90
52943;DHT22;38809;53.300;6.614;2023-05-07T13:13:23;15.90;99.90
52943;DHT22;38809;53.300;6.614;2023-05-07T13:15:49;15.90;99.90
52943;DHT22;38809;53.300;6.614;2023-05-07T13:18:14;15.70;99.90
52943;DHT22;38809;53.300;6.614;2023-05-07T13:20:40;15.80;99.90
52943;DHT22;38809;53.300;6.614;2023-05-07T13:23:06;15.80;99.90
52943;DHT22;38809;53.300;6.614;2023-05-07T13:25:31;15.70;99.90
52943;DHT22;38809;53.300;6.614;2023-05-07T13:27:57;16.00;99.90
52943;DHT22;38809;53.300;6.614;2023-05-07T13:30:23;15.90;99.90
52943;DHT22;38809;53.300;6.614;2023-05-07T13:32:49;15.90;99.90
52943;DHT22;38809;53.300;6.614;2023-05-07T13:35:16;15.90;99.90
52943;DHT22;38809;53.300;6.614;2023-05-07T13:37:41;16.10;99.90
52943;DHT22;38809;53.300;6.614;2023-05-07T13:40:08;16.20;99.90
52943;DHT22;38809;53.300;6.614;2023-05-07T13:42:33;16.30;99.90
52943;DHT22;38809;53.300;6.614;2023-05-07T13:44:59;16.40;99.90
52943;DHT22;38809;53.300;6.614;2023-05-07T13:47:25;16.40;99.90
52943;DHT22;38809;53.300;6.614;2023-05-07T13:49:51;16.40;99.90
52943;DHT22;38809;53.300;6.614;2023-05-07T13:52:18;16.40;99.90
52943;DHT22;38809;53.300;6.614;2023-05-07T13:54:44;16.50;99.90
52943;DHT22;38809;53.300;6.614;2023-05-07T13:57:09;16.50;99.90
52943;DHT22;38809;53.300;6.614;2023-05-07T13:59:35;16.30;99.90
52943;DHT22;38809;53.300;6.614;2023-05-07T14:02:01;16.10;99.90
52943;DHT22;38809;53.300;6.614;2023-05-07T14:04:26;16.10;99.90
52943;DHT22;38809;53.300;6.614;2023-05-07T14:06:52;16.20;99.90
52943;DHT22;38809;53.300;6.614;2023-05-07T14:09:18;16.20;99.90
52943;DHT22;38809;53.300;6.614;2023-05-07T14:11:43;16.10;99.90
52943;DHT22;38809;53.300;6.614;2023-05-07T14:14:09;16.30;99.90
52943;DHT22;38809;53.300;6.614;2023-05-07T14:16:36;16.50;99.90
52943;DHT22;38809;53.300;6.614;2023-05-07T14:19:02;16.40;99.90
52943;DHT22;38809;53.300;6.614;2023-05-07T14:21:28;16.40;99.90
52943;DHT22;38809;53.300;6.614;2023-05-07T14:23:53;16.70;99.90
52943;DHT22;38809;53.300;6.614;2023-05-07T14:26:20;16.60;99.90
52943;DHT22;38809;53.300;6.614;2023-05-07T14:28:46;16.50;99.90
52943;DHT22;38809;53.300;6.614;2023-05-07T14:31:12;16.50;99.90
52943;DHT22;38809;53.300;6.614;2023-05-07T14:33:38;16.30;99.90
52943;DHT22;38809;53.300;6.614;2023-05-07T14:36:03;16.50;99.90
52943;DHT22;38809;53.300;6.614;2023-05-07T14:38:30;16.40;99.90
52943;DHT22;38809;53.300;6.614;2023-05-07T14:40:58;16.50;99.90
52943;DHT22;38809;53.300;6.614;2023-05-07T14:43:24;16.50;99.90
52943;DHT22;38809;53.300;6.614;2023-05-07T14:45:49;16.60;99.90
52943;DHT22;38809;53.300;6.614;2023-05-07T14:48:15;16.60;99.90
52943;DHT22;38809;53.300;6.614;2023-05-07T14:50:42;16.60;99.90
52943;DHT22;38809;53.300;6.614;2023-05-07T14:53:07;16.50;99.90
52943;DHT22;38809;53.300;6.614;2023-05-07T14:55:34;16.50;99.90
52943;DHT22;38809;53.300;6.614;2023-05-07T14:58:00;16.60;99.90
52943;DHT22;38809;53.300;6.614;2023-05-07T15:00:26;16.70;99.90
52943;DHT22;38809;53.300;6.614;2023-05-07T15:02:52;16.80;99.90
52943;DHT22;38809;53.300;6.614;2023-05-07T15:05:17;16.60;99.90
52943;DHT22;38809;53.300;6.614;2023-05-07T15:07:44;16.80;99.90
52943;DHT22;38809;53.300;6.614;2023-05-07T15:10:10;16.80;99.90
52943;DHT22;38809;53.300;6.614;2023-05-07T15:12:36;16.90;99.90
52943;DHT22;38809;53.300;6.614;2023-05-07T15:15:02;16.80;99.90
52943;DHT22;38809;53.300;6.614;2023-05-07T15:17:28;16.80;99.90
52943;DHT22;38809;53.300;6.614;2023-05-07T15:19:54;16.90;99.90
52943;DHT22;38809;53.300;6.614;2023-05-07T15:22:20;16.80;99.90
52943;DHT22;38809;53.300;6.614;2023-05-07T15:24:46;16.90;99.90
52943;DHT22;38809;53.300;6.614;2023-05-07T15:27:12;17.00;99.90
52943;DHT22;38809;53.300;6.614;2023-05-07T15:29:39;17.00;99.90
52943;DHT22;38809;53.300;6.614;2023-05-07T15:32:05;17.10;99.90
52943;DHT22;38809;53.300;6.614;2023-05-07T15:34:30;17.20;99.90
52943;DHT22;38809;53.300;6.614;2023-05-07T15:36:56;17.30;99.90
52943;DHT22;38809;53.300;6.614;2023-05-07T15:39:22;17.20;99.90
52943;DHT22;38809;53.300;6.614;2023-05-07T15:41:48;17.10;99.90